sensor_id;sensor_type;location;lat;lon;timestamp;pressure;altitude;pressure_sealevel;temperature;humidity
36380;BME280;22411;53.016;18.632;2022-12-05T00:00:20;101497.66;;;0.27;100.00
36380;BME280;22411;53.016;18.632;2022-12-05T00:03:05;101488.28;;;0.26;100.00
36380;BME280;22411;53.016;18.632;2022-12-05T00:05:30;101485.75;;;0.26;100.00
36380;BME280;22411;53.016;18.632;2022-12-05T00:07:56;101481.53;;;0.23;100.00
36380;BME280;22411;53.016;18.632;2022-12-05T00:10:22;101482.34;;;0.25;100.00
36380;BME280;22411;53.016;18.632;2022-12-05T00:12:48;101488.28;;;0.26;100.00
36380;BME280;22411;53.016;18.632;2022-12-05T00:15:14;101493.44;;;0.23;100.00
36380;BME280;22411;53.016;18.632;2022-12-05T00:17:40;101478.97;;;0.27;100.00
36380;BME280;22411;53.016;18.632;2022-12-05T00:20:07;101479.81;;;0.25;100.00
36380;BME280;22411;53.016;18.632;2022-12-05T00:22:37;101491.72;;;0.25;100.00
36380;BME280;22411;53.016;18.632;2022-12-05T00:25:05;101488.28;;;0.26;100.00
36380;BME280;22411;53.016;18.632;2022-12-05T00:27:32;101487.41;;;0.30;100.00
36380;BME280;22411;53.016;18.632;2022-12-05T00:29:59;101493.34;;;0.31;100.00
36380;BME280;22411;53.016;18.632;2022-12-05T00:32:27;101487.47;;;0.27;100.00
36380;BME280;22411;53.016;18.632;2022-12-05T00:34:53;101478.97;;;0.27;100.00
36380;BME280;22411;53.016;18.632;2022-12-05T00:37:20;101484.91;;;0.27;100.00
36380;BME280;22411;53.016;18.632;2022-12-05T00:39:45;101486.63;;;0.27;100.00
36380;BME280;22411;53.016;18.632;2022-12-05T00:42:11;101485.75;;;0.26;100.00
36380;BME280;22411;53.016;18.632;2022-12-05T00:44:37;101490.84;;;0.29;100.00
36380;BME280;22411;53.016;18.632;2022-12-05T00:47:03;101490.84;;;0.29;100.00
36380;BME280;22411;53.016;18.632;2022-12-05T00:49:33;101495.09;;;0.29;100.00
36380;BME280;22411;53.016;18.632;2022-12-05T00:51:59;101506.13;;;0.29;100.00
36380;BME280;22411;53.016;18.632;2022-12-05T00:54:28;101512.97;;;0.27;100.00
36380;BME280;22411;53.016;18.632;2022-12-05T00:56:54;101512.94;;;0.29;100.00
36380;BME280;22411;53.016;18.632;2022-12-05T00:59:23;101505.28;;;0.29;100.00
36380;BME280;22411;53.016;18.632;2022-12-05T01:01:50;101498.44;;;0.31;100.00
36380;BME280;22411;53.016;18.632;2022-12-05T01:04:21;101500.97;;;0.34;100.00
36380;BME280;22411;53.016;18.632;2022-12-05T01:06:48;101491.66;;;0.31;100.00
36380;BME280;22411;53.016;18.632;2022-12-05T01:09:17;101487.41;;;0.30;100.00
36380;BME280;22411;53.016;18.632;2022-12-05T01:11:44;101486.56;;;0.30;100.00
36380;BME280;22411;53.016;18.632;2022-12-05T01:14:11;101494.19;;;0.31;100.00
36380;BME280;22411;53.016;18.632;2022-12-05T01:16:39;101487.47;;;0.27;100.00
36380;BME280;22411;53.016;18.632;2022-12-05T01:19:14;101489.16;;;0.28;100.00
36380;BME280;22411;53.016;18.632;2022-12-05T01:21:41;101484.03;;;0.28;100.00
36380;BME280;22411;53.016;18.632;2022-12-05T01:24:08;101481.50;;;0.28;100.00
36380;BME280;22411;53.016;18.632;2022-12-05T01:26:34;101468.78;;;0.27;100.00
36380;BME280;22411;53.016;18.632;2022-12-05T01:29:00;101459.41;;;0.25;100.00
36380;BME280;22411;53.016;18.632;2022-12-05T01:31:32;101456.88;;;0.24;100.00
36380;BME280;22411;53.016;18.632;2022-12-05T01:34:00;101446.72;;;0.22;100.00
36380;BME280;22411;53.016;18.632;2022-12-05T01:36:27;101450.91;;;0.25;100.00
36380;BME280;22411;53.016;18.632;2022-12-05T01:38:54;101447.50;;;0.26;100.00
36380;BME280;22411;53.016;18.632;2022-12-05T01:41:26;101448.38;;;0.25;100.00
36380;BME280;22411;53.016;18.632;2022-12-05T01:46:19;101439.03;;;0.24;100.00
36380;BME280;22411;53.016;18.632;2022-12-05T01:48:45;101433.94;;;0.21;100.00
36380;BME280;22411;53.016;18.632;2022-12-05T01:51:11;101435.66;;;0.22;100.00
36380;BME280;22411;53.016;18.632;2022-12-05T01:53:37;101440.75;;;0.20;100.00
36380;BME280;22411;53.016;18.632;2022-12-05T01:56:03;101433.13;;;0.22;100.00
36380;BME280;22411;53.016;18.632;2022-12-05T01:58:35;101426.31;;;0.22;100.00
36380;BME280;22411;53.016;18.632;2022-12-05T02:01:02;101431.34;;;0.25;100.00
36380;BME280;22411;53.016;18.632;2022-12-05T02:03:28;101428.84;;;0.24;100.00
36380;BME280;22411;53.016;18.632;2022-12-05T02:05:56;101430.59;;;0.19;100.00
36380;BME280;22411;53.016;18.632;2022-12-05T02:08:26;101428.00;;;0.23;100.00
36380;BME280;22411;53.016;18.632;2022-12-05T02:10:55;101416.94;;;0.23;100.00
36380;BME280;22411;53.016;18.632;2022-12-05T02:31:19;101425.47;;;0.20;100.00
36380;BME280;22411;53.016;18.632;2022-12-05T02:33:52;101422.06;;;0.23;100.00
36380;BME280;22411;53.016;18.632;2022-12-05T02:36:42;101419.50;;;0.23;100.00
36380;BME280;22411;53.016;18.632;2022-12-05T02:40:04;101424.56;;;0.24;100.00
36380;BME280;22411;53.016;18.632;2022-12-05T02:42:41;101430.53;;;0.23;100.00
36380;BME280;22411;53.016;18.632;2022-12-05T02:45:12;101440.75;;;0.23;100.00
36380;BME280;22411;53.016;18.632;2022-12-05T02:47:44;101440.75;;;0.20;100.00
36380;BME280;22411;53.016;18.632;2022-12-05T02:50:14;101431.41;;;0.21;100.00
36380;BME280;22411;53.016;18.632;2022-12-05T02:52:44;101433.97;;;0.19;100.00
36380;BME280;22411;53.016;18.632;2022-12-05T02:55:14;101427.22;;;0.17;100.00
36380;BME280;22411;53.016;18.632;2022-12-05T02:57:45;101441.66;;;0.18;100.00
36380;BME280;22411;53.016;18.632;2022-12-05T03:00:14;101437.41;;;0.17;100.00
36380;BME280;22411;53.016;18.632;2022-12-05T03:02:41;101430.59;;;0.19;100.00
36380;BME280;22411;53.016;18.632;2022-12-05T03:05:31;101428.00;;;0.20;100.00
36380;BME280;22411;53.016;18.632;2022-12-05T03:08:01;101431.41;;;0.22;100.00
36380;BME280;22411;53.016;18.632;2022-12-05T03:10:33;101427.13;;;0.24;100.00
36380;BME280;22411;53.016;18.632;2022-12-05T03:13:05;101421.13;;;0.29;100.00
36380;BME280;22411;53.016;18.632;2022-12-05T03:15:38;101418.59;;;0.29;100.00
36380;BME280;22411;53.016;18.632;2022-12-05T03:18:15;101421.97;;;0.29;100.00
36380;BME280;22411;53.016;18.632;2022-12-05T03:20:49;101426.25;;;0.27;100.00
36380;BME280;22411;53.016;18.632;2022-12-05T03:23:43;101420.28;;;0.28;100.00
36380;BME280;22411;53.016;18.632;2022-12-05T03:32:23;101420.31;;;0.25;100.00
36380;BME280;22411;53.016;18.632;2022-12-05T03:37:04;101418.63;;;0.24;100.00
36380;BME280;22411;53.016;18.632;2022-12-05T03:39:34;101410.97;;;0.27;100.00
36380;BME280;22411;53.016;18.632;2022-12-05T03:42:17;101410.13;;;0.23;100.00
36380;BME280;22411;53.016;18.632;2022-12-05T03:45:10;101411.81;;;0.24;100.00
36380;BME280;22411;53.016;18.632;2022-12-05T03:47:55;101408.50;;;0.18;100.00
36380;BME280;22411;53.016;18.632;2022-12-05T03:50:27;101411.91;;;0.17;100.00
36380;BME280;22411;53.016;18.632;2022-12-05T03:52:58;101411.94;;;0.14;100.00
36380;BME280;22411;53.016;18.632;2022-12-05T03:55:28;101416.22;;;0.10;100.00
36380;BME280;22411;53.016;18.632;2022-12-05T03:58:02;101415.34;;;0.13;100.00
36380;BME280;22411;53.016;18.632;2022-12-05T04:00:31;101420.47;;;0.11;100.00
36380;BME280;22411;53.016;18.632;2022-12-05T04:03:22;101427.25;;;0.12;100.00
36380;BME280;22411;53.016;18.632;2022-12-05T04:05:54;101416.22;;;0.12;100.00
36380;BME280;22411;53.016;18.632;2022-12-05T04:08:25;101429.84;;;0.11;100.00
36380;BME280;22411;53.016;18.632;2022-12-05T04:10:55;101431.50;;;0.13;100.00
36380;BME280;22411;53.016;18.632;2022-12-05T04:13:33;101425.59;;;0.11;100.00
36380;BME280;22411;53.016;18.632;2022-12-05T04:22:20;101439.16;;;0.12;100.00
36380;BME280;22411;53.016;18.632;2022-12-05T04:24:48;101432.38;;;0.11;100.00
36380;BME280;22411;53.016;18.632;2022-12-05T04:30:21;101425.59;;;0.08;100.00
36380;BME280;22411;53.016;18.632;2022-12-05T04:32:49;101434.06;;;0.10;100.00
36380;BME280;22411;53.016;18.632;2022-12-05T04:35:27;101432.38;;;0.11;100.00
36380;BME280;22411;53.016;18.632;2022-12-05T04:37:59;101434.09;;;0.09;100.00
36380;BME280;22411;53.016;18.632;2022-12-05T04:40:36;101439.25;;;0.06;100.00
36380;BME280;22411;53.016;18.632;2022-12-05T04:43:05;101432.44;;;0.05;100.00
36380;BME280;22411;53.016;18.632;2022-12-05T04:45:33;101431.56;;;0.07;100.00
36380;BME280;22411;53.016;18.632;2022-12-05T04:48:03;101432.41;;;0.08;100.00
36380;BME280;22411;53.016;18.632;2022-12-05T04:50:32;101429.06;;;0.03;100.00
36380;BME280;22411;53.016;18.632;2022-12-05T04:53:00;101425.63;;;0.07;100.00
36380;BME280;22411;53.016;18.632;2022-12-05T04:55:29;101426.44;;;0.09;100.00
36380;BME280;22411;53.016;18.632;2022-12-05T04:58:12;101427.31;;;0.08;100.00
36380;BME280;22411;53.016;18.632;2022-12-05T05:03:20;101418.00;;;0.04;100.00
36380;BME280;22411;53.016;18.632;2022-12-05T05:05:50;101420.56;;;0.04;100.00
36380;BME280;22411;53.016;18.632;2022-12-05T05:08:20;101417.13;;;0.06;100.00
36380;BME280;22411;53.016;18.632;2022-12-05T05:13:21;101406.97;;;0.03;100.00
36380;BME280;22411;53.016;18.632;2022-12-05T05:15:47;101404.38;;;0.05;100.00
36380;BME280;22411;53.016;18.632;2022-12-05T05:18:13;101400.13;;;0.05;100.00
36380;BME280;22411;53.016;18.632;2022-12-05T05:20:39;101406.97;;;0.03;100.00
36380;BME280;22411;53.016;18.632;2022-12-05T05:23:05;101406.13;;;0.03;100.00
36380;BME280;22411;53.016;18.632;2022-12-05T05:25:31;101417.19;;;0.02;100.00
36380;BME280;22411;53.016;18.632;2022-12-05T05:27:57;101414.59;;;0.03;100.00
36380;BME280;22411;53.016;18.632;2022-12-05T05:30:24;101416.28;;;0.04;100.00
36380;BME280;22411;53.016;18.632;2022-12-05T05:32:50;101407.00;;;0.02;100.00
36380;BME280;22411;53.016;18.632;2022-12-05T05:35:16;101411.19;;;0.04;100.00
36380;BME280;22411;53.016;18.632;2022-12-05T05:37:42;101402.69;;;0.07;100.00
36380;BME280;22411;53.016;18.632;2022-12-05T05:40:10;101407.78;;;0.05;100.00
36380;BME280;22411;53.016;18.632;2022-12-05T05:42:44;101401.84;;;0.06;100.00
36380;BME280;22411;53.016;18.632;2022-12-05T05:45:11;101399.28;;;0.06;100.00
36380;BME280;22411;53.016;18.632;2022-12-05T05:47:38;101398.44;;;0.07;100.00
36380;BME280;22411;53.016;18.632;2022-12-05T05:50:05;101400.09;;;0.08;100.00
36380;BME280;22411;53.016;18.632;2022-12-05T05:52:32;101406.09;;;0.06;100.00
36380;BME280;22411;53.016;18.632;2022-12-05T05:54:59;101404.38;;;0.05;100.00
36380;BME280;22411;53.016;18.632;2022-12-05T05:57:25;101404.38;;;0.06;100.00
36380;BME280;22411;53.016;18.632;2022-12-05T05:59:51;101402.66;;;0.08;100.00
36380;BME280;22411;53.016;18.632;2022-12-05T06:02:17;101407.75;;;0.08;100.00
36380;BME280;22411;53.016;18.632;2022-12-05T06:04:43;101408.66;;;0.06;100.00
36380;BME280;22411;53.016;18.632;2022-12-05T06:07:09;101403.53;;;0.07;100.00
36380;BME280;22411;53.016;18.632;2022-12-05T06:09:36;101406.13;;;0.03;100.00
36380;BME280;22411;53.016;18.632;2022-12-05T06:12:01;101414.59;;;0.06;100.00
36380;BME280;22411;53.016;18.632;2022-12-05T06:14:28;101420.59;;;0.01;100.00
36380;BME280;22411;53.016;18.632;2022-12-05T06:16:53;101422.25;;;0.06;100.00
36380;BME280;22411;53.016;18.632;2022-12-05T06:19:19;101420.53;;;0.07;100.00
36380;BME280;22411;53.016;18.632;2022-12-05T06:21:48;101413.75;;;0.06;100.00
36380;BME280;22411;53.016;18.632;2022-12-05T06:24:16;101411.19;;;0.06;100.00
36380;BME280;22411;53.016;18.632;2022-12-05T06:26:41;101422.22;;;0.08;100.00
36380;BME280;22411;53.016;18.632;2022-12-05T06:29:09;101421.31;;;0.12;100.00
36380;BME280;22411;53.016;18.632;2022-12-05T06:31:35;101423.94;;;0.06;100.00
36380;BME280;22411;53.016;18.632;2022-12-05T06:34:02;101423.09;;;0.04;100.00
36380;BME280;22411;53.016;18.632;2022-12-05T06:36:29;101425.66;;;0.02;100.00
36380;BME280;22411;53.016;18.632;2022-12-05T06:38:57;101424.78;;;0.05;100.00
36380;BME280;22411;53.016;18.632;2022-12-05T06:41:23;101420.50;;;0.08;100.00
36380;BME280;22411;53.016;18.632;2022-12-05T06:43:54;101426.44;;;0.09;100.00
36380;BME280;22411;53.016;18.632;2022-12-05T06:46:21;101419.63;;;0.09;100.00
36380;BME280;22411;53.016;18.632;2022-12-05T06:48:47;101429.84;;;0.08;100.00
36380;BME280;22411;53.016;18.632;2022-12-05T06:51:15;101423.03;;;0.11;100.00
36380;BME280;22411;53.016;18.632;2022-12-05T06:53:42;101424.75;;;0.08;100.00
36380;BME280;22411;53.016;18.632;2022-12-05T06:56:14;101420.53;;;0.05;100.00
36380;BME280;22411;53.016;18.632;2022-12-05T06:58:45;101424.00;;;0.01;100.00
36380;BME280;22411;53.016;18.632;2022-12-05T07:01:17;101417.19;;;0.02;100.00
36380;BME280;22411;53.016;18.632;2022-12-05T07:04:11;101413.84;;;-0.07;100.00
36380;BME280;22411;53.016;18.632;2022-12-05T07:06:37;101410.50;;;-0.09;100.00
36380;BME280;22411;53.016;18.632;2022-12-05T07:09:04;101409.59;;;-0.06;100.00
36380;BME280;22411;53.016;18.632;2022-12-05T07:11:30;101408.75;;;-0.04;100.00
36380;BME280;22411;53.016;18.632;2022-12-05T07:13:57;101411.28;;;-0.04;100.00
36380;BME280;22411;53.016;18.632;2022-12-05T07:16:23;101406.16;;;-0.02;100.00
36380;BME280;22411;53.016;18.632;2022-12-05T07:18:49;101412.09;;;0.02;100.00
36380;BME280;22411;53.016;18.632;2022-12-05T07:21:15;101416.31;;;0.03;100.00
36380;BME280;22411;53.016;18.632;2022-12-05T07:23:44;101414.59;;;0.05;100.00
36380;BME280;22411;53.016;18.632;2022-12-05T07:26:12;101405.31;;;-0.03;100.00
36380;BME280;22411;53.016;18.632;2022-12-05T07:28:39;101412.09;;;-0.02;100.00
36380;BME280;22411;53.016;18.632;2022-12-05T07:31:07;101404.44;;;0.02;100.00
36380;BME280;22411;53.016;18.632;2022-12-05T07:33:34;101409.44;;;0.09;100.00
36380;BME280;22411;53.016;18.632;2022-12-05T07:36:06;101407.78;;;0.07;100.00
36380;BME280;22411;53.016;18.632;2022-12-05T07:38:33;101401.84;;;0.05;100.00
36380;BME280;22411;53.016;18.632;2022-12-05T07:41:03;101415.50;;;0.01;100.00
36380;BME280;22411;53.016;18.632;2022-12-05T07:43:30;101416.34;;;0.01;100.00
36380;BME280;22411;53.016;18.632;2022-12-05T07:46:00;101423.97;;;0.03;100.00
36380;BME280;22411;53.016;18.632;2022-12-05T07:48:26;101417.13;;;0.05;100.00
36380;BME280;22411;53.016;18.632;2022-12-05T07:50:52;101418.03;;;0.02;100.00
36380;BME280;22411;53.016;18.632;2022-12-05T07:53:19;101416.28;;;0.04;100.00
36380;BME280;22411;53.016;18.632;2022-12-05T07:55:45;101416.22;;;0.10;100.00
36380;BME280;22411;53.016;18.632;2022-12-05T07:58:11;101408.56;;;0.10;100.00
36380;BME280;22411;53.016;18.632;2022-12-05T08:00:36;101401.78;;;0.09;100.00
36380;BME280;22411;53.016;18.632;2022-12-05T08:03:03;101406.91;;;0.08;100.00
36380;BME280;22411;53.016;18.632;2022-12-05T08:05:32;101406.94;;;0.05;100.00
36380;BME280;22411;53.016;18.632;2022-12-05T08:07:58;101404.38;;;0.08;100.00
36380;BME280;22411;53.016;18.632;2022-12-05T08:10:24;101408.56;;;0.12;100.00
36380;BME280;22411;53.016;18.632;2022-12-05T08:12:50;101407.72;;;0.13;100.00
36380;BME280;22411;53.016;18.632;2022-12-05T08:15:16;101407.72;;;0.10;100.00
36380;BME280;22411;53.016;18.632;2022-12-05T08:17:42;101406.88;;;0.09;100.00
36380;BME280;22411;53.016;18.632;2022-12-05T08:20:08;101403.47;;;0.12;100.00
36380;BME280;22411;53.016;18.632;2022-12-05T08:22:35;101408.56;;;0.13;100.00
36380;BME280;22411;53.016;18.632;2022-12-05T08:25:00;101402.59;;;0.14;100.00
36380;BME280;22411;53.016;18.632;2022-12-05T08:27:27;101408.56;;;0.10;100.00
36380;BME280;22411;53.016;18.632;2022-12-05T08:29:53;101404.34;;;0.11;100.00
36380;BME280;22411;53.016;18.632;2022-12-05T08:32:19;101406.09;;;0.06;100.00
36380;BME280;22411;53.016;18.632;2022-12-05T08:34:45;101409.47;;;0.08;100.00
36380;BME280;22411;53.016;18.632;2022-12-05T08:37:11;101400.94;;;0.09;100.00
36380;BME280;22411;53.016;18.632;2022-12-05T08:39:37;101401.78;;;0.09;100.00
36380;BME280;22411;53.016;18.632;2022-12-05T08:42:03;101402.69;;;0.07;100.00
36380;BME280;22411;53.016;18.632;2022-12-05T08:44:29;101391.56;;;0.12;100.00
36380;BME280;22411;53.016;18.632;2022-12-05T08:46:55;101394.91;;;0.16;100.00
36380;BME280;22411;53.016;18.632;2022-12-05T08:49:21;101387.22;;;0.20;100.00
36380;BME280;22411;53.016;18.632;2022-12-05T08:51:47;101392.38;;;0.17;100.00
36380;BME280;22411;53.016;18.632;2022-12-05T08:54:13;101393.22;;;0.18;100.00
36380;BME280;22411;53.016;18.632;2022-12-05T08:56:39;101394.91;;;0.16;100.00
36380;BME280;22411;53.016;18.632;2022-12-05T08:59:05;101390.69;;;0.15;100.00
36380;BME280;22411;53.016;18.632;2022-12-05T09:01:32;101394.94;;;0.14;100.00
36380;BME280;22411;53.016;18.632;2022-12-05T09:04:01;101392.41;;;0.13;100.00
36380;BME280;22411;53.016;18.632;2022-12-05T09:06:30;101393.22;;;0.15;100.00
36380;BME280;22411;53.016;18.632;2022-12-05T09:08:59;101391.53;;;0.17;100.00
36380;BME280;22411;53.016;18.632;2022-12-05T09:11:28;101390.69;;;0.15;100.00
36380;BME280;22411;53.016;18.632;2022-12-05T09:13:56;101400.00;;;0.17;100.00
36380;BME280;22411;53.016;18.632;2022-12-05T09:16:28;101388.09;;;0.18;100.00
36380;BME280;22411;53.016;18.632;2022-12-05T09:18:54;101393.22;;;0.16;100.00
36380;BME280;22411;53.016;18.632;2022-12-05T09:21:23;101394.91;;;0.17;100.00
36380;BME280;22411;53.016;18.632;2022-12-05T09:23:50;101398.25;;;0.21;100.00
36380;BME280;22411;53.016;18.632;2022-12-05T09:26:20;101393.97;;;0.24;100.00
36380;BME280;22411;53.016;18.632;2022-12-05T09:28:46;101386.34;;;0.23;100.00
36380;BME280;22411;53.016;18.632;2022-12-05T09:31:18;101383.81;;;0.23;100.00
36380;BME280;22411;53.016;18.632;2022-12-05T09:33:44;101384.63;;;0.25;100.00
36380;BME280;22411;53.016;18.632;2022-12-05T09:36:31;101377.00;;;0.23;100.00
36380;BME280;22411;53.016;18.632;2022-12-05T09:39:04;101372.72;;;0.27;100.00
36380;BME280;22411;53.016;18.632;2022-12-05T09:44:40;101376.06;;;0.29;100.00
36380;BME280;22411;53.016;18.632;2022-12-05T09:47:16;101379.47;;;0.30;100.00
36380;BME280;22411;53.016;18.632;2022-12-05T09:49:52;101376.88;;;0.33;100.00
36380;BME280;22411;53.016;18.632;2022-12-05T09:52:33;101371.75;;;0.34;100.00
36380;BME280;22411;53.016;18.632;2022-12-05T09:55:05;101363.28;;;0.34;100.00
36380;BME280;22411;53.016;18.632;2022-12-05T09:57:38;101372.63;;;0.32;100.00
36380;BME280;22411;53.016;18.632;2022-12-05T10:00:06;101372.63;;;0.32;100.00
36380;BME280;22411;53.016;18.632;2022-12-05T10:02:49;101361.59;;;0.33;100.00
36380;BME280;22411;53.016;18.632;2022-12-05T10:08:23;101368.31;;;0.38;100.00
36380;BME280;22411;53.016;18.632;2022-12-05T10:11:12;101358.13;;;0.38;100.00
36380;BME280;22411;53.016;18.632;2022-12-05T10:13:54;101354.63;;;0.44;100.00
36380;BME280;22411;53.016;18.632;2022-12-05T10:16:31;101356.38;;;0.40;100.00
36380;BME280;22411;53.016;18.632;2022-12-05T10:19:03;101358.06;;;0.41;100.00
36380;BME280;22411;53.016;18.632;2022-12-05T10:21:49;101348.69;;;0.42;100.00
36380;BME280;22411;53.016;18.632;2022-12-05T10:24:42;101348.69;;;0.43;100.00
36380;BME280;22411;53.016;18.632;2022-12-05T10:27:09;101348.69;;;0.43;100.00
36380;BME280;22411;53.016;18.632;2022-12-05T10:29:43;101347.00;;;0.44;100.00
36380;BME280;22411;53.016;18.632;2022-12-05T10:32:15;101341.91;;;0.42;100.00
36380;BME280;22411;53.016;18.632;2022-12-05T10:34:44;101342.75;;;0.43;100.00
36380;BME280;22411;53.016;18.632;2022-12-05T10:37:18;101340.97;;;0.46;100.00
36380;BME280;22411;53.016;18.632;2022-12-05T10:39:47;101338.47;;;0.45;100.00
36380;BME280;22411;53.016;18.632;2022-12-05T10:42:25;101341.00;;;0.45;100.00
36380;BME280;22411;53.016;18.632;2022-12-05T10:44:58;101328.22;;;0.46;100.00
36380;BME280;22411;53.016;18.632;2022-12-05T10:47:28;101327.34;;;0.49;100.00
36380;BME280;22411;53.016;18.632;2022-12-05T10:49:59;101326.50;;;0.50;100.00
36380;BME280;22411;53.016;18.632;2022-12-05T10:52:27;101318.84;;;0.50;100.00
36380;BME280;22411;53.016;18.632;2022-12-05T10:54:59;101318.88;;;0.48;100.00
36380;BME280;22411;53.016;18.632;2022-12-05T10:57:28;101310.38;;;0.48;100.00
36380;BME280;22411;53.016;18.632;2022-12-05T10:59:57;101307.81;;;0.46;100.00
36380;BME280;22411;53.016;18.632;2022-12-05T11:02:33;101312.94;;;0.48;100.00
36380;BME280;22411;53.016;18.632;2022-12-05T11:05:01;101304.44;;;0.46;100.00
36380;BME280;22411;53.016;18.632;2022-12-05T11:07:35;101307.03;;;0.41;100.00
36380;BME280;22411;53.016;18.632;2022-12-05T11:10:33;101306.13;;;0.47;100.00
36380;BME280;22411;53.016;18.632;2022-12-05T11:13:00;101289.97;;;0.48;100.00
36380;BME280;22411;53.016;18.632;2022-12-05T11:15:44;101298.56;;;0.41;100.00
36380;BME280;22411;53.016;18.632;2022-12-05T11:18:30;101303.63;;;0.44;100.00
36380;BME280;22411;53.016;18.632;2022-12-05T11:21:08;101303.56;;;0.48;100.00
36380;BME280;22411;53.016;18.632;2022-12-05T11:23:35;101296.00;;;0.42;100.00
36380;BME280;22411;53.016;18.632;2022-12-05T11:26:02;101282.38;;;0.42;100.00
36380;BME280;22411;53.016;18.632;2022-12-05T11:28:33;101281.53;;;0.41;100.00
36380;BME280;22411;53.016;18.632;2022-12-05T11:33:41;101287.53;;;0.39;100.00
36380;BME280;22411;53.016;18.632;2022-12-05T11:36:22;101288.41;;;0.38;100.00
36380;BME280;22411;53.016;18.632;2022-12-05T11:38:54;101286.66;;;0.40;100.00
36380;BME280;22411;53.016;18.632;2022-12-05T11:41:43;101286.59;;;0.44;100.00
36380;BME280;22411;53.016;18.632;2022-12-05T11:44:17;101280.66;;;0.44;100.00
36380;BME280;22411;53.016;18.632;2022-12-05T12:01:10;101270.34;;;0.53;100.00
36380;BME280;22411;53.016;18.632;2022-12-05T12:04:02;101271.22;;;0.50;100.00
36380;BME280;22411;53.016;18.632;2022-12-05T12:07:06;101260.13;;;0.53;100.00
36380;BME280;22411;53.016;18.632;2022-12-05T12:12:42;101252.41;;;0.56;100.00
36380;BME280;22411;53.016;18.632;2022-12-05T12:31:40;101221.66;;;0.65;100.00
36380;BME280;22411;53.016;18.632;2022-12-05T12:34:37;101204.69;;;0.63;100.00
36380;BME280;22411;53.016;18.632;2022-12-05T12:37:39;101196.19;;;0.62;100.00
36380;BME280;22411;53.016;18.632;2022-12-05T12:45:30;101198.69;;;0.65;100.00
36380;BME280;22411;53.016;18.632;2022-12-05T12:50:34;101197.81;;;0.66;100.00
36380;BME280;22411;53.016;18.632;2022-12-05T12:53:11;101187.66;;;0.63;100.00
36380;BME280;22411;53.016;18.632;2022-12-05T12:56:20;101189.34;;;0.66;100.00
36380;BME280;22411;53.016;18.632;2022-12-05T13:01:42;101183.31;;;0.70;100.00
36380;BME280;22411;53.016;18.632;2022-12-05T13:04:18;101182.44;;;0.71;100.00
36380;BME280;22411;53.016;18.632;2022-12-05T13:06:53;101182.38;;;0.75;100.00
36380;BME280;22411;53.016;18.632;2022-12-05T13:11:48;101184.16;;;0.70;100.00
36380;BME280;22411;53.016;18.632;2022-12-05T13:14:19;101177.31;;;0.72;100.00
36380;BME280;22411;53.016;18.632;2022-12-05T13:16:50;101176.41;;;0.76;100.00
36380;BME280;22411;53.016;18.632;2022-12-05T13:19:43;101174.69;;;0.77;100.00
36380;BME280;22411;53.016;18.632;2022-12-05T13:22:11;101189.13;;;0.78;100.00
36380;BME280;22411;53.016;18.632;2022-12-05T13:24:38;101183.31;;;0.70;100.00
36380;BME280;22411;53.016;18.632;2022-12-05T13:27:12;101184.16;;;0.70;100.00
36380;BME280;22411;53.016;18.632;2022-12-05T13:29:42;101178.22;;;0.68;100.00
36380;BME280;22411;53.016;18.632;2022-12-05T13:32:41;101184.19;;;0.69;100.00
36380;BME280;22411;53.016;18.632;2022-12-05T13:35:10;101185.88;;;0.68;100.00
36380;BME280;22411;53.016;18.632;2022-12-05T13:37:44;101185.91;;;0.67;100.00
36380;BME280;22411;53.016;18.632;2022-12-05T13:40:32;101191.00;;;0.67;100.00
36380;BME280;22411;53.016;18.632;2022-12-05T13:43:20;101197.03;;;0.64;100.00
36380;BME280;22411;53.016;18.632;2022-12-05T13:46:08;101198.63;;;0.68;100.00
36380;BME280;22411;53.016;18.632;2022-12-05T13:48:40;101195.25;;;0.68;100.00
36380;BME280;22411;53.016;18.632;2022-12-05T13:51:11;101191.91;;;0.64;100.00
36380;BME280;22411;53.016;18.632;2022-12-05T13:53:57;101189.34;;;0.66;100.00
36380;BME280;22411;53.016;18.632;2022-12-05T13:56:46;101179.94;;;0.68;100.00
36380;BME280;22411;53.016;18.632;2022-12-05T13:59:12;101184.16;;;0.70;100.00
36380;BME280;22411;53.016;18.632;2022-12-05T14:01:58;101174.88;;;0.66;100.00
36380;BME280;22411;53.016;18.632;2022-12-05T14:04:44;101176.53;;;0.67;100.00
36380;BME280;22411;53.016;18.632;2022-12-05T14:07:35;101171.44;;;0.69;100.00
36380;BME280;22411;53.016;18.632;2022-12-05T14:10:03;101165.47;;;0.68;100.00
36380;BME280;22411;53.016;18.632;2022-12-05T14:12:51;101157.81;;;0.68;100.00
36380;BME280;22411;53.016;18.632;2022-12-05T14:15:32;101151.00;;;0.70;100.00
36380;BME280;22411;53.016;18.632;2022-12-05T14:18:14;101148.44;;;0.70;100.00
36380;BME280;22411;53.016;18.632;2022-12-05T14:26:55;101145.13;;;0.65;100.00
36380;BME280;22411;53.016;18.632;2022-12-05T14:32:02;101141.72;;;0.65;100.00
36380;BME280;22411;53.016;18.632;2022-12-05T14:34:32;101134.94;;;0.64;100.00
36380;BME280;22411;53.016;18.632;2022-12-05T14:39:43;101133.31;;;0.60;100.00
36380;BME280;22411;53.016;18.632;2022-12-05T14:42:26;101128.97;;;0.63;100.00
36380;BME280;22411;53.016;18.632;2022-12-05T14:44:57;101132.31;;;0.67;100.00
36380;BME280;22411;53.016;18.632;2022-12-05T14:47:28;101123.00;;;0.66;100.00
36380;BME280;22411;53.016;18.632;2022-12-05T14:50:32;101122.97;;;0.67;100.00
36380;BME280;22411;53.016;18.632;2022-12-05T15:01:00;101123.88;;;0.65;100.00